Time;durP1;ratioP1;P1;durP2;ratioP2;P2;SDS_P1;SDS_P2;PMS_P1;PMS_P2;Temp;Humidity;BMP_temperature;BMP_pressure;BME280_temperature;BME280_humidity;BME280_pressure;Samples;Min_cycle;Max_cycle;Signal;HPM_P1;HPM_P2
2021/01/15 00:05:27;;;;;;;27.58;11.57;;;;;;;-1.83;100.00;98850.16;4267100;81;43780;-77
2021/01/15 00:11:32;;;;;;;23.22;10.18;;;;;;;-1.90;100.00;98857.86;4194225;84;44443;-78
2021/01/15 00:17:35;;;;;;;;;;;;;;;-1.90;100.00;98863.64;4295305;83;28542;-79
2021/01/15 00:23:38;;;;;;;19.12;7.78;;;;;;;-1.85;100.00;98867.46;4335708;81;43922;-79
2021/01/15 00:29:40;;;;;;;18.17;7.58;;;;;;;-2.19;100.00;98876.59;4333751;81;43948;-79
2021/01/15 00:35:42;;;;;;;16.40;7.75;;;;;;;-2.12;100.00;98878.46;4333008;80;43908;-79
2021/01/15 00:41:45;;;;;;;16.17;6.70;;;;;;;-2.14;100.00;98887.48;4322404;81;43949;-79
2021/01/15 00:47:48;;;;;;;14.13;5.97;;;;;;;-2.30;100.00;98889.02;4306801;82;43987;-80
2021/01/15 00:53:51;;;;;;;14.07;6.25;;;;;;;-2.11;100.00;98898.55;4335882;81;43924;-79
2021/01/15 00:59:53;;;;;;;15.70;6.55;;;;;;;-2.08;100.00;98902.70;4335449;81;43975;-79
2021/01/15 01:06:18;;;;;;;14.87;6.85;;;;;;;-2.14;100.00;98896.70;4330960;81;43924;-79
2021/01/15 01:12:19;;;;;;;;;;;;;;;-2.05;100.00;98906.84;4343818;81;28538;-79
2021/01/15 01:18:21;;;;;;;14.33;6.12;;;;;;;-2.18;100.00;98912.49;4332015;81;43955;-77
2021/01/15 01:24:24;;;;;;;14.33;6.30;;;;;;;-2.31;100.00;98926.03;4326879;82;43908;-76
2021/01/15 01:30:26;;;;;;;13.45;5.72;;;;;;;-2.20;100.00;98938.97;4307519;82;43561;-78
2021/01/15 01:36:28;;;;;;;12.37;5.90;;;;;;;-2.28;100.00;98943.69;4324384;81;43245;-77
2021/01/15 01:42:30;;;;;;;13.40;5.90;;;;;;;-2.27;100.00;98937.94;4311674;82;43333;-77
2021/01/15 01:48:34;;;;;;;10.50;4.33;;;;;;;-2.46;100.00;98941.05;4313950;81;43307;-78
2021/01/15 01:54:37;;;;;;;10.85;4.65;;;;;;;-2.47;100.00;98953.03;4175773;84;43217;-78
2021/01/15 02:00:40;;;;;;;10.10;5.12;;;;;;;-2.60;100.00;98948.97;4288128;82;42951;-78
2021/01/15 02:06:42;;;;;;;8.75;4.05;;;;;;;-2.58;100.00;98944.38;4276289;81;43083;-78
2021/01/15 02:12:58;;;;;;;10.00;4.22;;;;;;;-2.61;100.00;98943.84;4292387;82;43250;-78
2021/01/15 02:19:15;;;;;;;12.75;4.92;;;;;;;-2.75;100.00;98953.91;4275535;81;43246;-78
2021/01/15 02:25:38;;;;;;;11.12;4.80;;;;;;;-2.67;100.00;98955.79;4264166;82;43283;-78
2021/01/15 02:32:13;;;;;;;12.25;4.60;;;;;;;-2.67;100.00;98948.73;4273244;82;43242;-78
2021/01/15 02:38:55;;;;;;;14.00;5.28;;;;;;;-2.72;100.00;98949.65;4272078;82;28604;-76
2021/01/15 02:44:59;;;;;;;12.88;5.70;;;;;;;-2.78;100.00;98942.36;4294028;81;43558;-77
2021/01/15 02:51:02;;;;;;;11.88;5.78;;;;;;;-2.76;100.00;98948.30;4292932;82;43218;-77
2021/01/15 02:57:05;;;;;;;13.90;6.72;;;;;;;-2.68;100.00;98959.40;4292129;82;43908;-77
2021/01/15 03:03:42;;;;;;;16.85;6.70;;;;;;;-2.70;100.00;98965.30;4273942;82;43933;-76
2021/01/15 03:09:47;;;;;;;16.65;6.67;;;;;;;-2.62;100.00;98964.09;4229493;82;43949;-75
2021/01/15 03:15:51;;;;;;;13.68;6.22;;;;;;;-2.68;100.00;98977.83;4274096;83;28624;-75
2021/01/15 03:21:54;;;;;;;16.32;7.20;;;;;;;-2.61;100.00;98985.95;4266806;83;43990;-76
2021/01/15 03:28:00;;;;;;;16.30;6.75;;;;;;;-2.58;100.00;98975.16;4291392;82;43936;-76
2021/01/15 03:34:02;;;;;;;18.55;7.55;;;;;;;-2.57;100.00;98985.52;4285350;82;43932;-77
2021/01/15 03:40:06;;;;;;;16.80;7.58;;;;;;;-2.63;100.00;98976.91;4275539;83;43966;-77
2021/01/15 03:46:08;;;;;;;17.92;7.67;;;;;;;-2.63;100.00;98980.86;4289913;82;43932;-77
2021/01/15 03:52:11;;;;;;;18.10;7.87;;;;;;;-2.54;100.00;98972.55;4295814;82;43956;-80
2021/01/15 03:58:13;;;;;;;17.02;7.33;;;;;;;-2.61;100.00;98976.27;4295441;83;43909;-79
2021/01/15 04:04:15;;;;;;;20.40;9.18;;;;;;;-2.62;100.00;98971.14;4252452;82;43909;-78
2021/01/15 04:10:20;;;;;;;19.05;8.53;;;;;;;-2.60;100.00;98970.50;4286279;81;43930;-78
2021/01/15 04:16:22;;;;;;;20.67;8.83;;;;;;;-2.68;100.00;98965.51;4277597;82;29044;-77
2021/01/15 04:22:24;;;;;;;21.23;9.35;;;;;;;-2.60;100.00;98962.13;4294949;82;43944;-78
2021/01/15 04:28:26;;;;;;;22.58;10.25;;;;;;;-2.64;100.00;98953.36;4267762;83;44448;-78
2021/01/15 04:34:29;;;;;;;22.27;9.33;;;;;;;-2.65;100.00;98947.28;4268883;83;43928;-77
2021/01/15 04:40:31;;;;;;;26.85;12.05;;;;;;;-2.51;100.00;98957.77;4273731;82;43373;-79
2021/01/15 04:46:37;;;;;;;22.70;10.32;;;;;;;-2.53;100.00;98959.25;4267352;82;44460;-78
2021/01/15 04:52:52;;;;;;;24.02;9.30;;;;;;;-2.62;100.00;98959.30;4292667;82;43906;-78
2021/01/15 04:59:01;;;;;;;26.15;10.75;;;;;;;-2.55;100.00;98959.05;4250950;82;43035;-79
2021/01/15 05:05:07;;;;;;;22.93;8.75;;;;;;;-2.54;100.00;98958.08;4283300;81;43952;-79
2021/01/15 05:11:10;;;;;;;25.72;10.55;;;;;;;-2.41;100.00;98957.22;4281735;82;28627;-82
2021/01/15 05:17:12;;;;;;;24.37;10.40;;;;;;;-2.55;100.00;98961.69;4286415;82;43672;-81
2021/01/15 05:23:16;;;;;;;22.58;10.70;;;;;;;-2.58;100.00;98965.44;4285875;82;44429;-81
2021/01/15 05:29:19;;;;;;;28.73;10.72;;;;;;;-2.48;100.00;98968.50;4183258;84;43390;-80
2021/01/15 05:35:38;;;;;;;24.87;9.70;;;;;;;-2.45;100.00;98955.03;4205238;84;42712;-78
2021/01/15 05:41:43;;;;;;;27.70;12.50;;;;;;;-2.69;100.00;98965.17;4220479;84;43421;-78
2021/01/15 05:47:46;;;;;;;27.25;11.75;;;;;;;-2.68;100.00;98965.98;4192940;84;43298;-77
2021/01/15 05:53:49;;;;;;;28.80;12.78;;;;;;;-2.67;100.00;98964.53;4320559;81;43402;-77
2021/01/15 05:59:52;;;;;;;29.80;12.75;;;;;;;-2.72;100.00;98978.60;4167576;84;43404;-77
2021/01/15 06:05:54;;;;;;;16.65;7.35;;;;;;;-3.01;100.00;98999.33;4237383;81;43962;-76
2021/01/15 06:12:07;;;;;;;24.15;11.33;;;;;;;-3.90;100.00;99003.91;4305856;81;43234;-77
2021/01/15 06:18:18;;;;;;;20.05;9.33;;;;;;;-3.97;100.00;99015.46;4278819;83;43968;-77
2021/01/15 06:24:22;;;;;;;22.05;10.23;;;;;;;-4.06;100.00;99028.10;4291881;83;44484;-79
2021/01/15 06:30:31;;;;;;;23.60;10.23;;;;;;;-4.01;100.00;99040.35;4244670;82;44469;-76
2021/01/15 06:36:54;;;;;;;18.20;7.97;;;;;;;-4.08;100.00;99047.11;4276637;81;43958;-75
2021/01/15 06:42:59;;;;;;;22.45;9.28;;;;;;;-4.04;100.00;99058.99;4258716;83;43932;-76
2021/01/15 06:49:04;;;;;;;21.20;8.83;;;;;;;-3.97;100.00;99071.09;4288068;82;43980;-76
2021/01/15 06:55:09;;;;;;;;;;;;;;;-4.11;100.00;99088.09;4278694;83;28647;-74
2021/01/15 07:01:40;;;;;;;19.07;8.93;;;;;;;-4.04;100.00;99090.50;4264905;83;20199;-78
2021/01/15 07:07:44;;;;;;;19.60;8.25;;;;;;;-4.03;100.00;99103.98;4262360;82;43925;-75
2021/01/15 07:13:50;;;;;;;16.07;7.53;;;;;;;-3.87;100.00;99117.09;4259307;82;43960;-76
2021/01/15 07:20:13;;;;;;;18.92;8.53;;;;;;;-3.79;100.00;99118.56;4274267;83;44001;-77
2021/01/15 07:26:20;;;;;;;20.27;9.08;;;;;;;-3.75;100.00;99129.61;4212053;82;28568;-77
2021/01/15 07:32:27;;;;;;;19.07;8.50;;;;;;;-4.13;100.00;99135.95;4225998;82;28571;-77
2021/01/15 07:38:29;;;;;;;18.17;8.10;;;;;;;-4.04;100.00;99144.34;4279776;81;43928;-77
2021/01/15 07:44:36;;;;;;;18.40;7.33;;;;;;;-4.12;100.00;99154.69;4278531;83;43944;-77
2021/01/15 07:50:42;;;;;;;18.17;7.03;;;;;;;-3.99;100.00;99161.02;4287169;82;43940;-77
2021/01/15 07:56:44;;;;;;;13.95;6.58;;;;;;;-4.07;100.00;99170.89;4285206;83;28631;-77
2021/01/15 08:02:47;;;;;;;16.15;7.40;;;;;;;-3.84;100.00;99181.18;4181538;83;43911;-77
2021/01/15 08:09:08;;;;;;;13.70;6.33;;;;;;;-3.81;100.00;99188.31;4181571;83;43938;-77
2021/01/15 08:15:30;;;;;;;13.08;6.28;;;;;;;-3.90;100.00;99197.00;4211114;84;43910;-77
2021/01/15 08:21:34;;;;;;;12.53;5.53;;;;;;;-3.81;100.00;99205.39;4271350;83;43286;-76
2021/01/15 08:27:38;;;;;;;12.58;5.40;;;;;;;-4.00;100.00;99218.46;4292343;81;43238;-77
2021/01/15 08:33:40;;;;;;;12.40;4.72;;;;;;;-4.22;100.00;99221.63;4278825;81;43252;-78
2021/01/15 08:39:54;;;;;;;8.85;4.30;;;;;;;-3.91;100.00;99232.12;4161882;84;42784;-78
2021/01/15 08:46:00;;;;;;;10.93;4.15;;;;;;;-4.16;100.00;99247.37;4200384;83;43229;-77
2021/01/15 08:52:02;;;;;;;9.03;3.98;;;;;;;-4.42;100.00;99250.89;4241254;82;42710;-76
2021/01/15 08:58:06;;;;;;;11.65;4.60;;;;;;;-3.83;100.00;99259.88;4247792;83;43260;-77
2021/01/15 09:04:12;;;;;;;10.50;4.50;;;;;;;-3.71;100.00;99267.16;4242565;82;28601;-75
2021/01/15 09:10:17;;;;;;;12.10;5.40;;;;;;;-3.94;100.00;99277.05;4190487;83;43311;-75
2021/01/15 09:16:23;;;;;;;15.08;6.37;;;;;;;-4.00;100.00;99288.91;4167646;84;28618;-77
2021/01/15 09:22:28;;;;;;;11.35;4.30;;;;;;;-4.40;100.00;99305.41;4280561;81;43235;-77
2021/01/15 09:28:30;;;;;;;14.20;5.65;;;;;;;-4.00;100.00;99294.17;4273602;81;43905;-77
2021/01/15 09:34:33;;;;;;;12.60;5.10;;;;;;;-4.04;100.00;99300.63;4277366;82;43242;-77
2021/01/15 09:40:35;;;;;;;11.70;5.25;;;;;;;-3.58;100.00;99310.30;4300693;81;43217;-78
2021/01/15 09:46:37;;;;;;;12.78;5.25;;;;;;;-3.58;100.00;99314.24;4278097;82;43234;-77
2021/01/15 09:52:39;;;;;;;11.80;5.12;;;;;;;-3.89;100.00;99314.75;4291226;82;43264;-78
2021/01/15 09:58:41;;;;;;;11.60;4.62;;;;;;;-4.15;100.00;99313.84;4278197;81;43258;-76
2021/01/15 10:04:43;;;;;;;10.53;4.60;;;;;;;-3.66;100.00;99312.28;4258759;82;43276;-78
2021/01/15 10:10:45;;;;;;;8.65;4.20;;;;;;;-3.18;100.00;99309.09;4284107;82;42738;-78
2021/01/15 10:16:49;;;;;;;10.00;4.55;;;;;;;-2.76;100.00;99302.76;4268613;81;42978;-78
2021/01/15 10:22:52;;;;;;;11.97;4.62;;;;;;;-3.12;100.00;99309.88;4258584;83;28589;-76
2021/01/15 10:28:59;;;;;;;7.97;3.83;;;;;;;-3.22;100.00;99313.33;4264658;81;42692;-75
2021/01/15 10:35:01;;;;;;;10.13;4.53;;;;;;;-3.18;100.00;99300.70;4278432;81;43228;-74
2021/01/15 10:41:04;;;;;;;8.03;3.72;;;;;;;-2.97;100.00;99291.41;4215260;82;42752;-75
2021/01/15 10:47:06;;;;;;;7.55;3.67;;;;;;;-2.81;100.00;99282.96;4214615;83;42703;-75
2021/01/15 10:53:08;;;;;;;9.70;4.22;;;;;;;-2.62;100.00;99268.13;4171112;84;42696;-75
2021/01/15 10:59:10;;;;;;;16.90;6.00;;;;;;;-2.41;100.00;99253.97;4217569;82;43938;-75
2021/01/15 11:05:13;;;;;;;12.85;4.95;;;;;;;-2.49;100.00;99248.10;4166376;84;43269;-77
2021/01/15 11:11:15;;;;;;;14.93;4.70;;;;;;;-2.34;100.00;99243.70;4272072;81;43937;-84
2021/01/15 11:17:17;;;;;;;8.23;4.22;;;;;;;-2.29;100.00;99232.23;4185469;84;42692;-81
2021/01/15 11:23:20;;;;;;;10.15;4.80;;;;;;;-2.17;100.00;99232.42;4222851;82;43018;-83
2021/01/15 11:29:22;;;;;;;11.33;4.65;;;;;;;-1.96;100.00;99221.64;4201383;82;43247;-83
2021/01/15 11:35:24;;;;;;;12.35;5.42;;;;;;;-1.81;100.00;99222.50;4290493;82;43219;-83
2021/01/15 11:41:29;;;;;;;9.78;4.55;;;;;;;-1.80;100.00;99215.41;4269177;81;43009;-82
2021/01/15 11:47:32;;;;;;;8.20;3.72;;;;;;;-1.94;100.00;99211.45;4280824;81;42694;-82
2021/01/15 11:53:37;;;;;;;6.28;2.90;;;;;;;-1.47;98.41;99213.97;4278076;81;43407;-82
2021/01/15 11:59:39;;;;;;;8.10;3.60;;;;;;;-1.29;92.88;99206.58;4266762;83;42714;-82
2021/01/15 12:12:00;;;;;;;6.65;3.08;;;;;;;-1.33;95.41;99213.95;4594917;76;84524;-83
2021/01/15 12:18:03;;;;;;;7.83;3.10;;;;;;;-1.19;89.43;99208.66;4491646;78;42594;-82
2021/01/15 12:24:06;;;;;;;7.20;3.50;;;;;;;-1.22;84.04;99202.84;4492675;78;42564;-81
2021/01/15 12:30:10;;;;;;;8.98;3.70;;;;;;;-1.18;83.10;99208.14;4485053;78;42745;-85
2021/01/15 12:36:13;;;;;;;11.95;5.45;;;;;;;-1.16;79.00;99198.27;4478383;78;43233;-83
2021/01/15 12:42:15;;;;;;;14.63;5.83;;;;;;;-1.51;79.36;99197.27;4500748;78;43906;-74
2021/01/15 12:48:17;;;;;;;11.70;5.20;;;;;;;-1.50;75.39;99198.45;4494578;78;43210;-73
2021/01/15 12:54:20;;;;;;;13.62;5.55;;;;;;;-2.06;80.79;99197.65;4381198;80;43249;-76
2021/01/15 13:00:22;;;;;;;14.05;5.40;;;;;;;-2.24;81.65;99197.09;4353713;80;43985;-74
2021/01/15 13:06:24;;;;;;;15.93;6.25;;;;;;;-2.09;85.92;99204.03;4306102;82;43940;-75
2021/01/15 13:12:27;;;;;;;11.80;5.03;;;;;;;-2.04;85.25;99197.01;4359014;80;43235;-78
2021/01/15 13:18:29;;;;;;;11.50;4.87;;;;;;;-1.86;74.10;99200.53;4371579;80;43231;-75
2021/01/15 13:24:31;;;;;;;12.20;4.90;;;;;;;-2.02;77.81;99197.69;4308980;81;43273;-78
2021/01/15 13:30:35;;;;;;;9.60;4.00;;;;;;;-1.92;84.43;99172.63;4298141;81;42740;-76
2021/01/15 13:36:41;;;;;;;8.78;3.90;;;;;;;-1.98;77.44;99208.27;4365294;80;42739;-74
2021/01/15 13:42:43;;;;;;;10.90;4.42;;;;;;;-2.00;79.30;99197.05;4398449;80;43304;-75
2021/01/15 13:48:45;;;;;;;10.05;3.95;;;;;;;-2.11;80.42;99208.62;4383379;80;43032;-72
2021/01/15 13:54:47;;;;;;;10.08;3.62;;;;;;;-2.00;78.54;99197.89;4301980;81;43254;-75
2021/01/15 14:00:50;;;;;;;8.55;3.45;;;;;;;-2.08;80.96;99211.43;4298915;81;42745;-76
2021/01/15 14:06:55;;;;;;;9.45;3.33;;;;;;;-2.34;86.76;99206.82;4300430;82;42693;-75
2021/01/15 14:13:03;;;;;;;7.40;3.50;;;;;;;-2.42;80.41;99211.49;4303797;81;28928;-77
2021/01/15 14:19:11;;;;;;;9.70;4.08;;;;;;;-2.49;85.23;99219.61;4282511;82;50187;-76
2021/01/15 14:25:13;;;;;;;10.18;3.87;;;;;;;-2.55;86.79;99213.95;4300095;81;43240;-76
2021/01/15 14:31:15;;;;;;;10.98;4.17;;;;;;;-2.67;83.98;99219.01;4303638;83;43212;-77
2021/01/15 14:37:19;;;;;;;8.35;3.85;;;;;;;-2.83;78.62;99223.53;4359917;80;42732;-76
2021/01/15 14:43:20;;;;;;;9.73;3.95;;;;;;;-3.05;81.66;99220.22;4367901;80;42750;-76
2021/01/15 14:49:23;;;;;;;9.55;3.87;;;;;;;-3.14;80.40;99230.25;4328906;80;42736;-77
2021/01/15 14:55:30;;;;;;;9.80;4.50;;;;;;;-3.40;86.10;99221.59;4374111;80;43094;-76
2021/01/15 15:01:35;;;;;;;11.90;4.95;;;;;;;-3.53;87.37;99217.90;4278847;82;43231;-74
2021/01/15 15:07:47;;;;;;;15.48;5.70;;;;;;;-3.56;80.16;99219.49;4287588;81;43910;-77
2021/01/15 15:13:50;;;;;;;16.20;6.85;;;;;;;-3.65;82.43;99214.55;4309496;82;43972;-75
2021/01/15 15:19:53;;;;;;;21.35;7.92;;;;;;;-3.66;83.89;99208.94;4284722;81;43982;-73
2021/01/15 15:25:56;;;;;;;23.65;8.73;;;;;;;-3.74;83.67;99214.88;4292891;81;43994;-74
2021/01/15 15:31:58;;;;;;;23.90;8.83;;;;;;;-3.76;86.15;99215.50;4289526;83;43993;-75
2021/01/15 15:38:00;;;;;;;25.55;9.03;;;;;;;-3.88;86.21;99202.94;4349797;80;43525;-76
2021/01/15 15:44:03;;;;;;;26.02;10.50;;;;;;;-3.92;87.63;99207.63;4349394;81;43079;-75
2021/01/15 15:50:06;;;;;;;28.65;10.43;;;;;;;-3.97;85.23;99212.94;4338472;80;43509;-75
2021/01/15 15:56:09;;;;;;;31.45;11.30;;;;;;;-4.00;85.82;99206.64;4348915;81;43479;-76
2021/01/15 16:02:11;;;;;;;31.30;11.40;;;;;;;-3.98;91.00;99221.31;4344244;81;43450;-76
2021/01/15 16:08:14;;;;;;;25.48;10.68;;;;;;;-3.89;90.53;99209.66;4337413;80;42788;-76
2021/01/15 16:14:17;;;;;;;27.37;10.48;;;;;;;-3.89;91.86;99215.73;4292162;81;43355;-76
2021/01/15 16:20:22;;;;;;;24.67;10.80;;;;;;;-3.79;88.12;99219.22;4316074;80;28622;-75
2021/01/15 16:26:34;;;;;;;26.05;10.00;;;;;;;-3.62;92.49;99218.70;4259194;82;43557;-76
2021/01/15 16:32:37;;;;;;;27.37;9.63;;;;;;;-3.83;98.08;99211.27;4297481;82;42825;-75
2021/01/15 16:38:40;;;;;;;28.45;10.53;;;;;;;-3.75;92.93;99216.31;4307022;81;43436;-76
2021/01/15 16:44:42;;;;;;;30.52;10.43;;;;;;;-3.72;90.92;99211.62;4306376;82;43410;-76
2021/01/15 16:50:45;;;;;;;28.40;11.22;;;;;;;-3.74;90.09;99216.20;4293211;81;43469;-76
2021/01/15 16:56:49;;;;;;;35.48;10.72;;;;;;;-3.83;85.27;99212.58;4314628;81;44418;-76
2021/01/15 17:02:51;;;;;;;29.07;10.13;;;;;;;-3.84;83.80;99221.91;4309491;82;43462;-76
2021/01/15 17:08:53;;;;;;;25.72;9.65;;;;;;;-3.91;86.18;99218.98;4319175;81;42321;-76
2021/01/15 17:14:57;;;;;;;30.92;10.72;;;;;;;-3.86;86.52;99224.66;4343715;81;43422;-76
2021/01/15 17:20:59;;;;;;;29.60;10.82;;;;;;;-3.88;89.89;99229.72;4293469;82;43435;-75
2021/01/15 17:27:02;;;;;;;30.60;11.15;;;;;;;-3.94;90.82;99241.59;4309590;81;43478;-74
2021/01/15 17:33:05;;;;;;;29.67;11.08;;;;;;;-3.88;84.49;99237.09;4348193;81;43403;-76
2021/01/15 17:39:07;;;;;;;26.55;10.55;;;;;;;-3.96;89.08;99235.14;4357802;80;43370;-75
2021/01/15 17:45:14;;;;;;;31.35;10.78;;;;;;;-3.95;82.66;99235.48;4338172;81;43438;-74
2021/01/15 17:51:16;;;;;;;;;;;;;;;-3.97;85.23;99226.06;4350789;81;28566;-74
2021/01/15 17:57:18;;;;;;;32.08;10.08;;;;;;;-4.01;86.09;99239.97;4339315;80;43411;-76
2021/01/15 18:03:21;;;;;;;34.15;11.30;;;;;;;-4.12;87.11;99229.06;4343366;81;44115;-74
2021/01/15 18:09:23;;;;;;;35.38;12.00;;;;;;;-4.12;91.40;99232.16;4354427;81;44502;-73
2021/01/15 18:15:25;;;;;;;39.27;13.20;;;;;;;-4.18;96.83;99244.52;4377756;81;44463;-74
2021/01/15 18:21:28;;;;;;;37.53;12.63;;;;;;;-4.20;99.35;99249.89;4310640;82;44444;-74
2021/01/15 18:27:35;;;;;;;38.65;14.47;;;;;;;-4.60;100.00;99242.75;4395740;80;44424;-74
2021/01/15 18:33:37;;;;;;;41.00;14.73;;;;;;;-4.59;100.00;99236.53;4364204;80;44783;-74
2021/01/15 18:39:40;;;;;;;47.20;15.23;;;;;;;-4.62;100.00;99239.77;4404274;80;43726;-74
2021/01/15 18:45:43;;;;;;;38.78;13.90;;;;;;;-4.74;100.00;99238.64;4374420;80;44463;-73
2021/01/15 18:51:48;;;;;;;45.95;16.23;;;;;;;-4.71;100.00;99241.03;4394208;80;43754;-72
2021/01/15 18:57:59;;;;;;;40.52;13.58;;;;;;;-4.60;100.00;99249.31;4322550;82;44510;-72
2021/01/15 19:04:05;;;;;;;52.83;17.37;;;;;;;-4.57;100.00;99253.83;4293055;82;44159;-73
2021/01/15 19:10:08;;;;;;;;;;;;;;;-4.52;100.00;99257.38;4277154;82;28641;-73
2021/01/15 19:16:10;;;;;;;54.27;18.10;;;;;;;-4.59;100.00;99259.69;4344272;81;44076;-73
2021/01/15 19:22:17;;;;;;;50.90;16.60;;;;;;;-4.51;100.00;99255.95;4349537;81;28614;-74
2021/01/15 19:28:26;;;;;;;60.25;18.05;;;;;;;-4.43;100.00;99257.92;4344790;81;44147;-72
2021/01/15 19:34:29;;;;;;;57.17;19.95;;;;;;;-4.46;100.00;99263.44;4360235;80;44159;-74
2021/01/15 19:40:31;;;;;;;54.13;20.25;;;;;;;-4.42;100.00;99258.77;4342997;80;44128;-74
2021/01/15 19:46:39;;;;;;;59.23;18.73;;;;;;;-4.37;100.00;99263.98;4359414;81;44128;-75
2021/01/15 19:52:42;;;;;;;52.62;19.95;;;;;;;-4.42;100.00;99260.89;4350684;81;44085;-78
2021/01/15 19:58:45;;;;;;;59.27;20.95;;;;;;;-4.43;100.00;99255.77;4348611;81;44122;-73
2021/01/15 20:04:47;;;;;;;58.75;19.92;;;;;;;-4.32;100.00;99257.03;4345311;80;44127;-73
2021/01/15 20:10:49;;;;;;;64.67;21.27;;;;;;;-4.25;100.00;99256.84;4347512;81;43670;-73
2021/01/15 20:16:51;;;;;;;59.88;20.05;;;;;;;-4.30;100.00;99261.67;4325124;81;44476;-77
2021/01/15 20:22:56;;;;;;;56.05;18.85;;;;;;;-4.17;100.00;99263.25;4366091;81;44153;-74
2021/01/15 20:28:59;;;;;;;50.73;18.92;;;;;;;-4.21;100.00;99264.83;4384464;80;43744;-75
2021/01/15 20:35:07;;;;;;;50.85;18.87;;;;;;;-4.18;100.00;99271.59;4384252;81;43934;-77
2021/01/15 20:41:09;;;;;;;56.53;19.20;;;;;;;-4.23;100.00;99282.48;4399645;81;44103;-76
2021/01/15 20:47:11;;;;;;;52.03;19.15;;;;;;;-4.26;100.00;99291.94;4391031;80;44087;-77
2021/01/15 20:53:17;;;;;;;39.78;14.25;;;;;;;-4.12;100.00;99285.52;4387395;80;44436;-76
2021/01/15 20:59:18;;;;;;;51.45;18.52;;;;;;;-4.24;100.00;99296.58;4382630;80;42916;-76
2021/01/15 21:05:20;;;;;;;46.88;17.10;;;;;;;-4.18;100.00;99295.72;4379429;81;43758;-80
2021/01/15 21:11:22;;;;;;;51.33;18.05;;;;;;;-4.16;100.00;99296.42;4310008;82;43770;-77
2021/01/15 21:17:24;;;;;;;43.25;14.30;;;;;;;-4.15;100.00;99299.39;4313207;81;44561;-76
2021/01/15 21:23:27;;;;;;;61.20;20.72;;;;;;;-4.38;100.00;99305.60;4305060;81;44448;-76
2021/01/15 21:29:29;;;;;;;52.75;19.02;;;;;;;-4.44;100.00;99292.16;4283349;82;44088;-74
2021/01/15 21:35:31;;;;;;;46.88;16.95;;;;;;;-4.45;100.00;99293.13;4296760;82;43755;-75
2021/01/15 21:41:35;;;;;;;49.67;17.70;;;;;;;-4.42;100.00;99283.70;4364176;80;43863;-76
2021/01/15 21:47:41;;;;;;;49.08;17.12;;;;;;;-4.38;100.00;99291.66;4301238;81;43774;-80
2021/01/15 21:53:47;;;;;;;46.40;17.60;;;;;;;-4.36;100.00;99291.89;4348520;81;43744;-80
2021/01/15 21:59:49;;;;;;;;;;;;;;;-4.40;100.00;99293.59;4361598;81;28626;-78
2021/01/15 22:05:51;;;;;;;47.13;18.05;;;;;;;-4.44;100.00;99293.01;4343611;81;43823;-79
2021/01/15 22:11:53;;;;;;;54.90;20.15;;;;;;;-4.53;100.00;99299.02;4344309;81;44089;-78
2021/01/15 22:17:55;;;;;;;51.18;18.77;;;;;;;-4.48;100.00;99302.08;4281186;82;43921;-76
2021/01/15 22:23:57;;;;;;;52.25;19.55;;;;;;;-4.35;100.00;99300.59;4308624;82;44097;-76
2021/01/15 22:30:00;;;;;;;51.53;19.12;;;;;;;-4.28;100.00;99299.13;4298367;82;44090;-77
2021/01/15 22:36:05;;;;;;;47.05;16.82;;;;;;;-4.33;100.00;99303.91;4317447;81;43785;-76
2021/01/15 22:42:08;;;;;;;57.35;21.87;;;;;;;-4.28;100.00;99300.44;4287618;82;44119;-77
2021/01/15 22:48:25;;;;;;;58.85;20.60;;;;;;;-4.09;100.00;99296.27;4283020;82;44102;-77
2021/01/15 22:54:28;;;;;;;56.75;21.40;;;;;;;-4.08;100.00;99310.55;4298441;82;44120;-78
2021/01/15 23:00:31;;;;;;;60.48;25.52;;;;;;;-4.20;100.00;99308.50;4313391;82;42883;-78
2021/01/15 23:06:34;;;;;;;55.92;22.35;;;;;;;-4.27;100.00;99332.29;4320280;82;44092;-78
2021/01/15 23:12:37;;;;;;;49.48;19.32;;;;;;;-4.33;100.00;99336.73;4341081;81;43733;-76
2021/01/15 23:18:39;;;;;;;33.85;14.50;;;;;;;-4.35;100.00;99338.66;4371470;81;44092;-74
2021/01/15 23:24:41;;;;;;;28.02;11.93;;;;;;;-4.84;100.00;99351.39;4305377;81;43382;-74
2021/01/15 23:30:48;;;;;;;24.98;10.35;;;;;;;-5.07;100.00;99348.33;4344956;81;43659;-74
2021/01/15 23:36:53;;;;;;;23.60;9.50;;;;;;;-5.32;100.00;99356.00;4353757;81;43953;-75
2021/01/15 23:43:09;;;;;;;21.75;7.83;;;;;;;-5.48;100.00;99351.98;4347046;81;28669;-75
2021/01/15 23:49:11;;;;;;;19.82;8.38;;;;;;;-5.65;100.00;99350.67;4339214;81;43927;-75
2021/01/15 23:55:13;;;;;;;21.62;8.68;;;;;;;-5.66;100.00;99350.78;4343612;81;43919;-74
